Time;durP1;ratioP1;P1;durP2;ratioP2;P2;SDS_P1;SDS_P2;PMS_P1;PMS_P2;Temp;Humidity;BMP_temperature;BMP_pressure;BME280_temperature;BME280_humidity;BME280_pressure;Samples;Min_cycle;Max_cycle;Signal;HPM_P1;HPM_P2
2022/02/25 00:01:03;;;;;;;5.00;3.43;;;2.10;99.90;;;;;;5077558;28;20461;-56
2022/02/25 00:03:31;;;;;;;6.87;4.20;;;2.10;68.80;;;;;;5077511;28;20473;-57
2022/02/25 00:05:58;;;;;;;9.47;4.90;;;2.10;1.00;;;;;;5077889;28;20996;-53
2022/02/25 00:08:26;;;;;;;4.73;4.03;;;2.10;46.90;;;;;;5078091;28;20489;-52
2022/02/25 00:10:55;;;;;;;8.17;4.67;;;2.20;99.90;;;;;;5077327;28;20488;-55
2022/02/25 00:13:22;;;;;;;6.83;4.17;;;2.20;99.90;;;;;;5076842;28;20453;-53
2022/02/25 00:15:49;;;;;;;8.67;5.27;;;2.10;1.00;;;;;;5077509;28;20461;-54
2022/02/25 00:18:16;;;;;;;6.30;4.80;;;2.10;99.90;;;;;;5077326;28;20823;-52
2022/02/25 00:20:44;;;;;;;5.47;4.90;;;2.10;1.00;;;;;;5076271;28;20489;-55
2022/02/25 00:23:11;;;;;;;5.80;4.90;;;2.10;1.00;;;;;;5076500;28;20462;-53
2022/02/25 00:25:41;;;;;;;7.80;5.03;;;2.10;99.90;;;;;;5076914;28;20871;-56
2022/02/25 00:28:09;;;;;;;7.37;4.70;;;2.10;99.90;;;;;;5076221;28;20563;-56
2022/02/25 00:30:36;;;;;;;10.97;4.87;;;2.10;99.90;;;;;;5076944;28;20515;-59
2022/02/25 00:33:03;;;;;;;4.90;4.40;;;2.10;1.00;;;;;;5077033;28;20464;-57
2022/02/25 00:35:30;;;;;;;8.00;5.13;;;2.00;99.90;;;;;;5077435;28;20854;-56
2022/02/25 00:37:59;;;;;;;7.07;5.20;;;2.00;99.90;;;;;;5076506;28;20465;-57
2022/02/25 00:40:26;;;;;;;6.67;4.80;;;2.00;1.00;;;;;;5077162;28;20483;-58
2022/02/25 00:42:53;;;;;;;7.63;5.03;;;2.00;99.90;;;;;;5064893;28;20461;-55
2022/02/25 00:45:20;;;;;;;8.70;5.07;;;1.90;1.00;;;;;;5077016;28;20872;-58
2022/02/25 00:47:47;;;;;;;6.53;5.33;;;1.90;1.00;;;;;;5076319;28;20886;-56
2022/02/25 00:50:17;;;;;;;7.10;5.30;;;1.90;1.00;;;;;;5077007;28;20925;-56
2022/02/25 00:52:44;;;;;;;7.40;5.33;;;1.90;1.00;;;;;;5076171;28;20522;-58
2022/02/25 00:55:14;;;;;;;11.07;5.40;;;1.90;1.00;;;;;;5077029;28;20917;-55
2022/02/25 00:57:49;;;;;;;7.47;4.93;;;1.90;1.00;;;;;;5080589;28;20461;-52
2022/02/25 01:00:18;;;;;;;10.00;5.20;;;2.00;1.00;;;;;;5080607;28;20542;-55
2022/02/25 01:02:46;;;;;;;6.03;4.23;;;1.90;1.00;;;;;;5080794;28;20758;-57
2022/02/25 01:05:14;;;;;;;8.70;5.43;;;2.00;1.00;;;;;;5080812;28;20436;-56
2022/02/25 01:07:42;;;;;;;8.53;4.50;;;2.00;1.00;;;;;;5080351;28;20703;-55
2022/02/25 01:10:13;;;;;;;8.70;5.17;;;2.00;1.00;;;;;;5080813;28;20462;-57
2022/02/25 01:12:43;;;;;;;10.03;5.20;;;2.10;1.00;;;;;;5080019;28;20472;-53
2022/02/25 01:15:13;;;;;;;9.70;6.90;;;2.10;99.90;;;;;;5080120;28;20497;-55
2022/02/25 01:17:41;;;;;;;7.80;5.00;;;2.10;99.90;;;;;;5080551;28;20465;-53
2022/02/25 01:20:09;;;;;;;12.50;4.90;;;2.10;99.90;;;;;;5080202;28;20493;-57
2022/02/25 01:22:36;;;;;;;5.50;4.00;;;2.10;1.00;;;;;;5080230;28;20457;-55
2022/02/25 01:25:04;;;;;;;8.43;4.47;;;2.20;1.00;;;;;;5080165;28;20461;-57
2022/02/25 01:27:33;;;;;;;6.87;4.10;;;2.20;99.90;;;;;;5080512;28;20810;-55
2022/02/25 01:30:00;;;;;;;13.57;4.87;;;2.20;99.90;;;;;;5079985;28;20810;-54
2022/02/25 01:32:29;;;;;;;8.10;4.70;;;2.20;99.90;;;;;;5080443;28;20469;-53
2022/02/25 01:34:59;;;;;;;7.60;3.43;;;2.20;99.90;;;;;;5079744;28;20469;-59
2022/02/25 01:37:27;;;;;;;7.67;3.97;;;2.10;99.90;;;;;;5080161;28;20461;-54
2022/02/25 01:39:54;;;;;;;6.30;3.60;;;2.10;99.90;;;;;;5079652;28;20489;-57
2022/02/25 01:42:21;;;;;;;6.00;3.70;;;2.10;41.00;;;;;;5080309;28;20461;-56
2022/02/25 01:44:50;;;;;;;6.87;3.90;;;2.00;1.00;;;;;;5079954;28;20457;-59
2022/02/25 01:47:17;;;;;;;7.60;3.83;;;1.90;1.00;;;;;;5080096;28;20460;-57
2022/02/25 01:49:45;;;;;;;9.37;4.50;;;2.00;1.00;;;;;;5079700;28;20468;-57
2022/02/25 01:52:14;;;;;;;8.87;3.43;;;2.00;1.00;;;;;;5080045;28;20465;-56
2022/02/25 01:54:43;;;;;;;7.90;3.50;;;1.90;1.00;;;;;;5078289;28;20480;-53
2022/02/25 01:57:11;;;;;;;6.63;3.93;;;1.90;1.00;;;;;;5078884;28;20471;-56
2022/02/25 01:59:42;;;;;;;5.70;3.47;;;1.90;1.00;;;;;;5079353;28;20583;-55
2022/02/25 02:02:11;;;;;;;10.77;4.10;;;1.90;1.00;;;;;;5079151;28;20518;-55
2022/02/25 02:04:39;;;;;;;7.30;3.20;;;1.90;1.00;;;;;;5079003;28;20465;-57
2022/02/25 02:07:08;;;;;;;6.57;3.67;;;1.90;1.00;;;;;;5078630;28;20469;-59
2022/02/25 02:09:35;;;;;;;8.50;3.50;;;1.90;1.00;;;;;;5079515;28;20872;-56
2022/02/25 02:12:06;;;;;;;8.13;3.67;;;1.80;1.00;;;;;;5079273;28;20466;-57
2022/02/25 02:14:33;;;;;;;6.60;3.70;;;1.80;1.00;;;;;;5079097;28;20837;-59
2022/02/25 02:17:02;;;;;;;5.13;3.30;;;1.80;1.00;;;;;;5079016;28;20469;-54
2022/02/25 02:19:30;;;;;;;7.87;4.80;;;1.80;99.90;;;;;;5079001;28;20518;-57
2022/02/25 02:22:01;;;;;;;7.43;3.03;;;1.80;99.90;;;;;;5079539;28;20465;-57
2022/02/25 02:24:29;;;;;;;10.83;3.60;;;1.80;99.90;;;;;;5079673;28;20519;-57
2022/02/25 02:26:57;;;;;;;5.40;2.83;;;1.80;99.90;;;;;;5078721;28;20507;-56
2022/02/25 02:29:24;;;;;;;9.10;2.77;;;1.80;99.90;;;;;;5079797;28;20463;-56
2022/02/25 02:31:52;;;;;;;11.97;3.17;;;1.80;99.90;;;;;;5078709;28;20876;-58
2022/02/25 02:34:19;;;;;;;9.50;3.63;;;1.80;99.90;;;;;;5079608;28;20472;-56
2022/02/25 02:36:47;;;;;;;10.80;3.50;;;1.80;99.90;;;;;;5078711;28;20943;-55
2022/02/25 02:39:14;;;;;;;5.00;2.93;;;1.80;99.90;;;;;;5079070;28;20544;-59
2022/02/25 02:41:42;;;;;;;5.33;3.13;;;1.80;99.90;;;;;;5077838;28;20524;-58
2022/02/25 02:44:09;;;;;;;5.43;2.90;;;1.80;99.90;;;;;;5078986;28;20552;-55
2022/02/25 02:46:38;;;;;;;8.30;2.50;;;1.80;99.90;;;;;;5078919;28;20462;-56
2022/02/25 02:49:06;;;;;;;8.87;4.40;;;1.80;99.90;;;;;;5078208;28;20479;-59
2022/02/25 02:51:33;;;;;;;9.03;3.27;;;1.90;99.90;;;;;;5078761;28;20465;-55
2022/02/25 02:54:02;;;;;;;9.13;3.40;;;1.90;99.90;;;;;;5078175;28;20488;-53
2022/02/25 02:56:29;;;;;;;7.93;2.80;;;1.80;76.60;;;;;;5079286;28;20460;-55
2022/02/25 02:58:58;;;;;;;6.83;3.00;;;1.80;61.40;;;;;;5077763;28;20515;-59
2022/02/25 03:01:26;;;;;;;5.53;3.30;;;1.90;56.50;;;;;;5078674;28;20551;-54
2022/02/25 03:03:54;;;;;;;8.57;3.07;;;1.80;42.40;;;;;;5078326;28;20478;-58
2022/02/25 03:06:22;;;;;;;4.40;2.33;;;1.80;18.50;;;;;;5078011;28;20465;-57
2022/02/25 03:08:49;;;;;;;12.57;3.10;;;1.80;11.60;;;;;;5077740;28;20894;-60
2022/02/25 03:11:16;;;;;;;7.10;3.10;;;1.80;2.80;;;;;;5078386;28;20456;-60
2022/02/25 03:13:43;;;;;;;5.63;2.47;;;1.80;1.00;;;;;;5077927;28;20508;-54
2022/02/25 03:16:12;;;;;;;10.33;2.70;;;1.80;1.00;;;;;;5078509;28;20461;-58
2022/02/25 03:18:39;;;;;;;6.07;3.20;;;1.80;1.90;;;;;;5076638;28;20531;-58
2022/02/25 03:21:07;;;;;;;5.03;2.50;;;1.80;2.00;;;;;;5079694;28;20529;-55
2022/02/25 03:23:34;;;;;;;7.50;2.73;;;1.80;10.60;;;;;;5078038;28;20834;-52
2022/02/25 03:26:01;;;;;;;13.33;3.33;;;1.90;7.90;;;;;;5078379;28;20465;-56
2022/02/25 03:28:29;;;;;;;9.43;3.50;;;2.00;1.00;;;;;;5077456;28;20531;-58
2022/02/25 03:30:57;;;;;;;10.30;3.43;;;1.90;1.00;;;;;;5076792;28;20492;-57
2022/02/25 03:33:26;;;;;;;8.10;3.17;;;1.90;1.00;;;;;;5077382;28;20511;-60
2022/02/25 03:36:00;;;;;;;11.50;2.63;;;1.90;1.00;;;;;;5077362;28;20496;-59
2022/02/25 03:38:27;;;;;;;5.47;3.30;;;1.90;1.00;;;;;;5075121;28;20513;-60
2022/02/25 03:40:54;;;;;;;5.83;3.00;;;1.80;1.00;;;;;;5076012;28;20486;-60
2022/02/25 03:43:21;;;;;;;5.20;2.40;;;1.80;1.00;;;;;;5076156;28;20465;-59
2022/02/25 03:45:48;;;;;;;12.90;3.50;;;1.80;1.00;;;;;;5076250;28;20469;-59
2022/02/25 03:48:16;;;;;;;14.43;3.00;;;1.80;1.00;;;;;;5076365;28;20500;-59
2022/02/25 03:50:45;;;;;;;7.53;3.60;;;1.70;1.00;;;;;;5076337;28;21269;-56
2022/02/25 03:53:12;;;;;;;6.90;3.00;;;1.80;1.00;;;;;;5077151;28;20461;-59
2022/02/25 03:55:39;;;;;;;7.37;2.83;;;1.80;1.00;;;;;;5076920;28;20547;-58
2022/02/25 03:58:06;;;;;;;6.73;2.70;;;1.80;1.00;;;;;;5075494;28;20778;-59
2022/02/25 04:00:33;;;;;;;6.57;3.30;;;1.90;1.00;;;;;;5074566;28;20999;-59
2022/02/25 04:03:00;;;;;;;8.83;3.00;;;1.80;1.00;;;;;;5072914;28;20462;-58
2022/02/25 04:05:27;;;;;;;8.90;2.80;;;1.80;1.00;;;;;;5075705;28;20478;-57
2022/02/25 04:07:56;;;;;;;5.57;3.07;;;1.80;1.00;;;;;;5075652;28;20436;-57
2022/02/25 04:10:23;;;;;;;7.27;2.90;;;1.80;1.00;;;;;;5076171;28;20467;-59
2022/02/25 04:12:53;;;;;;;14.03;3.27;;;1.80;1.00;;;;;;5076103;28;20470;-58
2022/02/25 04:15:20;;;;;;;9.07;4.17;;;1.80;1.00;;;;;;5073269;28;20489;-59
2022/02/25 04:17:47;;;;;;;5.67;2.83;;;1.80;1.00;;;;;;5076114;28;20489;-57
2022/02/25 04:20:14;;;;;;;8.73;2.90;;;1.80;1.00;;;;;;5075962;28;20485;-58
2022/02/25 04:22:41;;;;;;;10.00;3.07;;;1.80;1.00;;;;;;5075460;28;20824;-59
2022/02/25 04:25:10;;;;;;;4.17;2.60;;;1.80;1.00;;;;;;5075501;28;20817;-59
2022/02/25 04:27:37;;;;;;;10.70;4.10;;;1.80;1.00;;;;;;5073672;28;20466;-57
2022/02/25 04:30:08;;;;;;;7.80;3.13;;;1.80;1.00;;;;;;5075405;28;20959;-59
2022/02/25 04:32:35;;;;;;;6.33;2.60;;;1.70;1.00;;;;;;5075030;28;20964;-58
2022/02/25 04:35:02;;;;;;;8.97;3.13;;;1.70;1.00;;;;;;5075922;28;20461;-59
2022/02/25 04:37:30;;;;;;;8.83;3.10;;;1.70;1.00;;;;;;5074760;28;20519;-58
2022/02/25 04:39:57;;;;;;;8.47;2.83;;;1.70;1.00;;;;;;5074487;28;20546;-59
2022/02/25 04:42:26;;;;;;;5.50;2.63;;;1.70;1.00;;;;;;5075675;28;20500;-59
2022/02/25 04:44:53;;;;;;;8.57;3.57;;;1.70;1.00;;;;;;5075681;28;20460;-59
2022/02/25 04:47:21;;;;;;;13.97;3.33;;;1.70;1.00;;;;;;5075698;28;20810;-59
2022/02/25 04:49:48;;;;;;;8.03;3.17;;;1.70;1.00;;;;;;5075508;28;20496;-59
2022/02/25 04:52:17;;;;;;;5.73;3.37;;;1.70;1.00;;;;;;5075243;28;20477;-58
2022/02/25 04:54:45;;;;;;;9.33;3.70;;;1.60;1.00;;;;;;5075579;28;20462;-58
2022/02/25 04:57:12;;;;;;;13.90;3.50;;;1.60;1.00;;;;;;5075381;28;20461;-59
2022/02/25 04:59:41;;;;;;;13.60;3.70;;;1.70;1.00;;;;;;5074884;28;21099;-58
2022/02/25 05:02:08;;;;;;;7.93;3.67;;;1.60;1.00;;;;;;5075019;28;20829;-59
2022/02/25 05:04:35;;;;;;;10.20;3.70;;;1.50;1.00;;;;;;5074014;28;20530;-59
2022/02/25 05:07:03;;;;;;;13.97;3.77;;;1.50;5.30;;;;;;5074758;28;20916;-59
2022/02/25 05:09:30;;;;;;;13.70;3.50;;;1.50;7.40;;;;;;5074715;28;21225;-59
2022/02/25 05:11:57;;;;;;;8.23;3.23;;;1.40;10.20;;;;;;5075316;28;20502;-57
2022/02/25 05:20:24;;;;;;;15.40;3.90;;;1.30;77.90;;;;;;5074052;28;20553;-59
2022/02/25 05:22:53;;;;;;;13.63;3.60;;;1.30;95.60;;;;;;5073791;28;20461;-59
2022/02/25 05:25:21;;;;;;;10.10;3.50;;;1.20;99.90;;;;;;5075293;28;20456;-58
2022/02/25 05:27:48;;;;;;;7.07;3.47;;;1.20;99.90;;;;;;5074891;28;20511;-60
2022/02/25 05:30:15;;;;;;;8.63;3.20;;;1.20;99.90;;;;;;5070875;28;20461;-59
2022/02/25 05:32:44;;;;;;;10.87;3.23;;;1.20;99.90;;;;;;5073347;28;20460;-59
2022/02/25 05:35:12;;;;;;;11.57;3.30;;;1.10;99.90;;;;;;5072833;28;20457;-60
2022/02/25 05:37:40;;;;;;;10.10;3.00;;;1.10;99.90;;;;;;5073988;28;20467;-58
2022/02/25 05:40:09;;;;;;;8.80;3.57;;;1.10;99.90;;;;;;5074394;28;20460;-60
2022/02/25 05:42:38;;;;;;;12.40;3.63;;;1.00;99.90;;;;;;5073839;28;20936;-60
2022/02/25 05:45:06;;;;;;;12.00;3.37;;;1.10;99.90;;;;;;5077253;28;20470;-60
2022/02/25 05:47:34;;;;;;;10.40;3.90;;;1.10;99.90;;;;;;5078327;28;20456;-60
2022/02/25 05:50:04;;;;;;;12.83;3.47;;;1.10;99.90;;;;;;5078277;28;20469;-60
2022/02/25 05:52:33;;;;;;;8.80;3.70;;;1.10;99.90;;;;;;5078045;28;20483;-59
2022/02/25 05:55:00;;;;;;;11.70;4.13;;;1.10;99.90;;;;;;5077328;28;20504;-60
2022/02/25 05:57:27;;;;;;;8.07;3.60;;;1.10;99.90;;;;;;5077573;28;20825;-60
2022/02/25 05:59:54;;;;;;;11.13;3.27;;;1.10;99.90;;;;;;5074662;28;20511;-58
2022/02/25 06:02:21;;;;;;;7.20;3.20;;;1.20;99.90;;;;;;5077991;28;20492;-59
2022/02/25 06:04:49;;;;;;;8.90;3.47;;;1.20;99.90;;;;;;5072334;28;20472;-59
2022/02/25 06:07:20;;;;;;;10.63;3.80;;;1.20;99.90;;;;;;5073028;28;20465;-59
2022/02/25 06:09:48;;;;;;;8.23;3.40;;;1.30;99.90;;;;;;5076897;28;20546;-60
2022/02/25 06:12:16;;;;;;;7.67;3.30;;;1.30;99.90;;;;;;5075112;28;20501;-60
2022/02/25 06:14:43;;;;;;;8.40;4.30;;;1.30;99.90;;;;;;5074864;28;20491;-60
2022/02/25 06:17:10;;;;;;;8.50;3.73;;;1.30;99.90;;;;;;5076403;28;20515;-59
2022/02/25 06:19:37;;;;;;;11.47;3.57;;;1.30;99.90;;;;;;5076598;28;20469;-58
2022/02/25 06:22:05;;;;;;;11.00;4.00;;;1.30;99.90;;;;;;5077950;28;20585;-58
2022/02/25 06:24:33;;;;;;;10.23;3.50;;;1.30;99.90;;;;;;5076714;28;20518;-59
2022/02/25 06:27:00;;;;;;;7.40;4.03;;;1.30;99.90;;;;;;5077345;28;20825;-60
2022/02/25 06:29:30;;;;;;;11.80;3.50;;;1.40;99.90;;;;;;5075207;28;20468;-58
2022/02/25 06:31:57;;;;;;;10.37;3.40;;;1.50;99.90;;;;;;5074860;28;20486;-61
2022/02/25 06:34:24;;;;;;;9.27;4.30;;;1.50;99.90;;;;;;5077911;28;20488;-61
2022/02/25 06:36:52;;;;;;;19.10;3.43;;;1.50;99.90;;;;;;5077320;28;20541;-61
2022/02/25 06:39:19;;;;;;;8.03;3.60;;;1.50;99.90;;;;;;5077413;28;20498;-61
2022/02/25 06:41:47;;;;;;;12.27;3.57;;;1.40;99.90;;;;;;5075916;28;20497;-61
2022/02/25 06:44:14;;;;;;;8.10;2.90;;;1.40;99.90;;;;;;5075811;28;20463;-61
2022/02/25 06:46:41;;;;;;;9.57;3.63;;;1.50;99.90;;;;;;5076491;28;20534;-61
2022/02/25 06:49:08;;;;;;;11.90;4.17;;;1.50;99.90;;;;;;5075967;28;20469;-62
2022/02/25 06:51:36;;;;;;;17.20;4.30;;;1.50;99.90;;;;;;5076153;28;20467;-62
2022/02/25 06:54:03;;;;;;;10.40;4.03;;;1.60;99.90;;;;;;5075041;28;20469;-61
2022/02/25 06:56:30;;;;;;;13.50;5.87;;;1.80;99.90;;;;;;5077059;28;20495;-61
2022/02/25 06:58:58;;;;;;;10.77;4.43;;;1.80;99.90;;;;;;5076573;28;20498;-61
2022/02/25 07:01:25;;;;;;;16.73;4.00;;;1.90;73.20;;;;;;5075807;28;20512;-61
2022/02/25 07:03:52;;;;;;;7.87;3.47;;;2.00;15.60;;;;;;5077203;28;20461;-61
2022/02/25 07:06:23;;;;;;;11.53;3.20;;;2.00;3.30;;;;;;5077313;28;20468;-62
2022/02/25 07:08:51;;;;;;;9.90;3.70;;;2.10;1.00;;;;;;5077774;28;20517;-62
2022/02/25 07:11:18;;;;;;;11.80;4.80;;;2.20;1.00;;;;;;5078674;28;20499;-62
2022/02/25 07:13:45;;;;;;;8.83;4.20;;;2.30;1.00;;;;;;5077438;28;20790;-62
2022/02/25 07:16:14;;;;;;;11.20;3.57;;;2.30;1.00;;;;;;5078016;28;20457;-62
2022/02/25 07:18:41;;;;;;;12.60;4.97;;;2.40;1.00;;;;;;5078867;28;20769;-62
2022/02/25 07:21:12;;;;;;;11.00;3.97;;;2.40;1.00;;;;;;5079230;28;20461;-62
2022/02/25 07:23:39;;;;;;;14.17;5.03;;;2.40;1.00;;;;;;5076198;28;20468;-62
2022/02/25 07:26:08;;;;;;;14.93;4.00;;;2.50;1.00;;;;;;5077565;28;20574;-61
2022/02/25 07:28:35;;;;;;;14.20;4.00;;;2.50;1.00;;;;;;5075746;28;20545;-61
2022/02/25 07:31:02;;;;;;;8.97;3.77;;;2.60;1.00;;;;;;5077230;28;20468;-58
2022/02/25 07:33:30;;;;;;;11.97;3.00;;;2.60;1.00;;;;;;5076341;28;20464;-59
2022/02/25 07:35:58;;;;;;;17.23;3.07;;;2.60;1.00;;;;;;5076169;28;20457;-60
2022/02/25 07:38:25;;;;;;;11.47;3.20;;;2.60;1.00;;;;;;5077076;28;20472;-60
2022/02/25 07:40:52;;;;;;;12.13;4.80;;;2.70;1.00;;;;;;5077500;28;20453;-60
2022/02/25 07:43:19;;;;;;;16.07;4.17;;;2.80;1.00;;;;;;5076964;28;20482;-59
2022/02/25 07:45:48;;;;;;;12.70;3.50;;;2.90;1.00;;;;;;5076138;28;20965;-60
2022/02/25 07:48:18;;;;;;;5.90;3.50;;;3.00;1.00;;;;;;5076868;28;20537;-60
2022/02/25 07:50:47;;;;;;;8.10;3.30;;;3.00;1.00;;;;;;5075405;28;20495;-61
2022/02/25 07:53:15;;;;;;;11.63;3.20;;;3.00;1.00;;;;;;5076006;28;20477;-60
2022/02/25 07:55:42;;;;;;;14.57;3.70;;;3.00;1.00;;;;;;5076458;28;20465;-61
2022/02/25 07:58:09;;;;;;;8.60;3.20;;;3.00;1.00;;;;;;5076848;28;20465;-62
2022/02/25 08:00:36;;;;;;;9.90;4.00;;;3.00;1.00;;;;;;5073900;28;20535;-61
2022/02/25 08:03:04;;;;;;;12.43;4.20;;;3.00;1.00;;;;;;5075588;28;20551;-61
2022/02/25 08:05:33;;;;;;;15.27;4.27;;;3.00;1.00;;;;;;5075339;28;20539;-62
2022/02/25 08:08:04;;;;;;;8.07;3.17;;;2.90;1.00;;;;;;5076956;28;20485;-62
2022/02/25 08:10:32;;;;;;;7.93;3.43;;;2.90;1.00;;;;;;5076013;28;20465;-61
2022/02/25 08:12:59;;;;;;;11.93;3.57;;;2.80;1.00;;;;;;5075373;28;20493;-61
2022/02/25 08:15:27;;;;;;;11.17;3.30;;;2.70;1.00;;;;;;5074822;28;20499;-61
2022/02/25 08:17:57;;;;;;;9.30;3.33;;;2.70;1.00;;;;;;5073585;28;20476;-61
2022/02/25 08:20:24;;;;;;;12.53;4.00;;;2.70;25.40;;;;;;5075580;28;20461;-61
2022/02/25 08:22:51;;;;;;;8.07;4.17;;;2.60;96.20;;;;;;5074064;28;20550;-61
2022/02/25 08:25:23;;;;;;;15.80;4.30;;;2.60;99.90;;;;;;5074468;28;20907;-61
2022/02/25 08:27:50;;;;;;;16.67;5.07;;;2.60;99.90;;;;;;5072873;28;20465;-61
2022/02/25 08:30:17;;;;;;;14.00;4.30;;;2.50;99.90;;;;;;5074525;28;20461;-58
2022/02/25 08:32:49;;;;;;;7.50;4.03;;;2.40;99.90;;;;;;5074001;28;20463;-62
2022/02/25 08:35:17;;;;;;;11.67;4.20;;;2.30;1.00;;;;;;5072173;28;20460;-61
2022/02/25 08:37:48;;;;;;;11.30;4.33;;;2.30;99.90;;;;;;5074554;28;20457;-62
2022/02/25 08:40:22;;;;;;;12.57;4.13;;;2.30;99.90;;;;;;5074542;28;20777;-62
2022/02/25 08:42:52;;;;;;;13.83;5.47;;;2.30;1.00;;;;;;5073873;28;20922;-63
2022/02/25 08:45:19;;;;;;;21.40;5.27;;;2.40;1.00;;;;;;5071867;28;20499;-63
2022/02/25 08:47:47;;;;;;;16.80;4.73;;;2.50;1.00;;;;;;5073550;28;20539;-62
2022/02/25 08:50:16;;;;;;;17.20;4.60;;;2.60;1.00;;;;;;5072824;28;20803;-62
2022/02/25 08:52:44;;;;;;;12.03;3.97;;;2.60;35.00;;;;;;5073588;28;20477;-62
2022/02/25 08:55:12;;;;;;;10.53;3.80;;;2.70;99.90;;;;;;5074657;28;20506;-62
2022/02/25 08:57:42;;;;;;;11.20;3.63;;;2.70;1.00;;;;;;5074409;28;20932;-62
2022/02/25 09:00:12;;;;;;;14.50;5.03;;;2.80;1.00;;;;;;5074327;28;20964;-62
2022/02/25 09:02:39;;;;;;;15.40;4.40;;;2.80;99.90;;;;;;5072292;28;20579;-63
2022/02/25 09:05:07;;;;;;;11.10;4.83;;;2.80;47.90;;;;;;5072958;28;20704;-63
2022/02/25 09:07:36;;;;;;;21.77;5.17;;;2.90;1.00;;;;;;5072692;28;20473;-62
2022/02/25 09:10:05;;;;;;;11.10;3.77;;;2.90;1.00;;;;;;5074268;28;20554;-62
2022/02/25 09:12:32;;;;;;;8.83;4.37;;;2.90;99.90;;;;;;5071301;28;20465;-60
2022/02/25 09:15:01;;;;;;;9.70;4.57;;;2.90;99.90;;;;;;5072911;28;20500;-62
2022/02/25 09:17:28;;;;;;;18.27;4.60;;;3.00;99.90;;;;;;5075818;28;20522;-62
2022/02/25 09:19:55;;;;;;;16.57;6.67;;;3.00;99.90;;;;;;5078038;28;20511;-62
2022/02/25 09:22:24;;;;;;;15.27;4.10;;;3.10;99.90;;;;;;5078394;28;20489;-62
2022/02/25 09:24:51;;;;;;;11.93;5.13;;;3.10;99.90;;;;;;5075306;28;20472;-63
2022/02/25 09:27:18;;;;;;;12.43;4.70;;;3.10;99.90;;;;;;5077815;28;20461;-62
2022/02/25 09:29:48;;;;;;;12.30;4.60;;;3.10;99.90;;;;;;5078370;28;20515;-61
2022/02/25 09:32:19;;;;;;;14.10;4.57;;;3.10;99.90;;;;;;5078350;28;20805;-62
2022/02/25 09:34:47;;;;;;;14.00;5.10;;;3.20;99.90;;;;;;5078591;28;20740;-62
2022/02/25 09:37:14;;;;;;;16.30;5.03;;;3.30;1.00;;;;;;5079188;28;20469;-62
2022/02/25 09:39:41;;;;;;;10.43;4.10;;;3.30;1.00;;;;;;5078908;28;20465;-61
2022/02/25 09:42:09;;;;;;;11.07;4.10;;;3.40;99.90;;;;;;5080200;28;20492;-63
2022/02/25 09:44:37;;;;;;;13.20;4.97;;;3.40;99.90;;;;;;5078755;28;20470;-63
2022/02/25 09:47:04;;;;;;;16.17;5.47;;;3.40;99.90;;;;;;5079610;28;20465;-63
2022/02/25 09:49:36;;;;;;;14.53;5.27;;;3.50;99.90;;;;;;5078370;28;20537;-63
2022/02/25 09:52:03;;;;;;;14.60;6.00;;;3.70;99.90;;;;;;5078245;28;20809;-63
2022/02/25 09:54:33;;;;;;;12.87;5.10;;;3.60;1.00;;;;;;5077716;28;20465;-60
2022/02/25 09:57:00;;;;;;;14.30;4.07;;;3.80;1.00;;;;;;5079094;28;20484;-63
2022/02/25 09:59:29;;;;;;;13.73;4.43;;;3.90;1.00;;;;;;5078902;28;20469;-62
2022/02/25 10:02:03;;;;;;;13.30;4.33;;;3.90;99.90;;;;;;5079061;28;20473;-62
2022/02/25 10:04:32;;;;;;;16.87;5.70;;;3.80;99.90;;;;;;5078141;28;20500;-62
2022/02/25 10:07:00;;;;;;;22.53;4.87;;;3.90;99.90;;;;;;5079245;28;20465;-62
2022/02/25 10:09:32;;;;;;;12.30;4.40;;;3.90;99.90;;;;;;5076739;28;20560;-62
2022/02/25 10:12:09;;;;;;;9.20;4.60;;;3.80;99.90;;;;;;5078807;28;20469;-62
2022/02/25 10:14:38;;;;;;;18.87;5.50;;;3.90;99.90;;;;;;5078176;28;20515;-62
2022/02/25 10:17:14;;;;;;;10.17;4.60;;;4.00;99.90;;;;;;5077942;28;20522;-62
2022/02/25 10:19:43;;;;;;;14.77;4.70;;;4.00;99.90;;;;;;5078575;28;20515;-63
2022/02/25 10:22:16;;;;;;;11.73;4.63;;;4.00;99.90;;;;;;5078466;28;20547;-61
2022/02/25 10:24:50;;;;;;;16.40;5.47;;;4.10;99.90;;;;;;5077800;28;20961;-62
2022/02/25 10:27:22;;;;;;;21.00;5.83;;;4.20;99.90;;;;;;5077916;28;20462;-61
2022/02/25 10:30:07;;;;;;;11.73;4.60;;;4.30;99.90;;;;;;5076587;28;20894;-62
2022/02/25 10:32:36;;;;;;;14.63;6.20;;;4.40;62.50;;;;;;5077831;28;20522;-61
2022/02/25 10:35:20;;;;;;;16.33;5.10;;;4.50;57.50;;;;;;5078528;28;20536;-62
2022/02/25 10:38:07;;;;;;;12.77;5.60;;;4.50;92.10;;;;;;5074978;28;20461;-62
2022/02/25 10:40:36;;;;;;;14.57;6.10;;;4.60;94.70;;;;;;5079756;28;20463;-62
2022/02/25 10:43:08;;;;;;;16.63;7.07;;;4.70;38.40;;;;;;5078263;28;20516;-62
2022/02/25 10:45:37;;;;;;;17.40;5.10;;;4.70;35.70;;;;;;5079388;28;20465;-61
2022/02/25 10:48:07;;;;;;;22.40;5.77;;;4.70;20.20;;;;;;5078013;28;20491;-62
2022/02/25 10:50:47;;;;;;;16.13;5.90;;;4.70;15.90;;;;;;5075677;28;20444;-62
2022/02/25 10:53:18;;;;;;;9.07;5.00;;;4.60;12.40;;;;;;5076609;28;20458;-62
2022/02/25 10:55:48;;;;;;;15.97;5.40;;;4.50;7.70;;;;;;5077115;28;20469;-62
2022/02/25 10:58:17;;;;;;;14.43;7.03;;;4.50;17.10;;;;;;5077438;28;20960;-63
2022/02/25 11:00:44;;;;;;;15.30;5.83;;;4.60;34.30;;;;;;5076250;28;20765;-62
2022/02/25 11:03:17;;;;;;;9.63;5.80;;;4.60;5.90;;;;;;5073709;28;20543;-62
2022/02/25 11:05:48;;;;;;;10.90;5.40;;;4.70;5.80;;;;;;5075811;28;20457;-63
2022/02/25 11:08:16;;;;;;;13.70;5.60;;;4.90;1.90;;;;;;5076804;28;20465;-63
2022/02/25 11:10:45;;;;;;;17.07;5.37;;;5.00;1.00;;;;;;5077407;28;20554;-63
2022/02/25 11:13:17;;;;;;;13.37;5.70;;;5.30;1.00;;;;;;5076765;28;20457;-63
2022/02/25 11:15:44;;;;;;;16.00;5.77;;;5.40;1.00;;;;;;5077456;28;20465;-63
2022/02/25 11:18:12;;;;;;;18.53;5.57;;;5.50;1.00;;;;;;5077617;28;20465;-63
2022/02/25 11:20:42;;;;;;;16.37;5.97;;;5.60;1.00;;;;;;5077236;28;20466;-63
2022/02/25 11:23:17;;;;;;;12.23;5.40;;;5.80;1.00;;;;;;5076522;28;21032;-63
2022/02/25 11:25:46;;;;;;;14.97;5.27;;;5.70;1.00;;;;;;5076684;28;20465;-64
2022/02/25 11:28:14;;;;;;;18.07;5.70;;;5.70;1.00;;;;;;5077031;28;20528;-63
2022/02/25 11:30:50;;;;;;;12.80;6.40;;;5.50;1.00;;;;;;5077280;28;20575;-63
2022/02/25 11:33:19;;;;;;;14.40;6.00;;;5.50;1.00;;;;;;5075979;28;20821;-63
2022/02/25 11:35:52;;;;;;;11.20;5.90;;;5.40;1.00;;;;;;5075307;28;20476;-62
2022/02/25 11:38:29;;;;;;;16.63;6.30;;;5.40;1.00;;;;;;5076670;28;20461;-62
2022/02/25 11:41:00;;;;;;;17.80;5.57;;;5.50;1.00;;;;;;5074938;28;20465;-62
2022/02/25 11:43:45;;;;;;;13.10;5.80;;;5.50;1.00;;;;;;5075920;28;20496;-62
2022/02/25 11:46:16;;;;;;;13.07;5.37;;;5.40;1.00;;;;;;5075061;28;20468;-58
2022/02/25 11:48:48;;;;;;;11.57;5.07;;;5.30;1.00;;;;;;5075843;28;20461;-58
2022/02/25 11:51:33;;;;;;;13.70;5.67;;;5.20;1.00;;;;;;5074563;28;20965;-60
2022/02/25 11:54:27;;;;;;;13.00;5.97;;;5.10;1.00;;;;;;5075647;28;20476;-54
2022/02/25 11:57:22;;;;;;;18.87;6.50;;;5.00;1.00;;;;;;5075458;28;20457;-61
2022/02/25 12:00:30;;;;;;;16.03;5.57;;;4.90;1.00;;;;;;5076427;28;20933;-61
2022/02/25 12:03:19;;;;;;;16.30;6.43;;;4.80;1.00;;;;;;5070464;28;20493;-60
2022/02/25 12:05:48;;;;;;;14.87;7.07;;;4.70;17.20;;;;;;5075371;28;20440;-58
2022/02/25 12:08:32;;;;;;;18.77;7.30;;;4.80;4.40;;;;;;5075424;28;20556;-59
2022/02/25 12:11:22;;;;;;;21.90;11.53;;;4.80;31.50;;;;;;5075174;28;20531;-61
2022/02/25 12:13:49;;;;;;;16.43;8.30;;;5.00;99.90;;;;;;5075654;28;20776;-60
2022/02/25 12:16:32;;;;;;;12.23;6.97;;;5.20;22.80;;;;;;5076257;28;20514;-60
2022/02/25 12:19:10;;;;;;;9.70;6.00;;;5.30;1.00;;;;;;5073623;28;20458;-60
2022/02/25 12:21:42;;;;;;;14.57;5.80;;;5.50;1.00;;;;;;5073131;28;20469;-60
2022/02/25 12:24:14;;;;;;;11.63;6.60;;;5.70;1.00;;;;;;5076612;28;20489;-60
2022/02/25 12:26:43;;;;;;;14.27;5.73;;;5.80;1.00;;;;;;5076636;28;20473;-62
2022/02/25 12:29:16;;;;;;;13.17;6.23;;;5.90;1.00;;;;;;5074344;28;20461;-61
2022/02/25 12:31:44;;;;;;;15.63;9.17;;;5.90;1.00;;;;;;5076526;28;20465;-60
2022/02/25 12:34:22;;;;;;;14.87;6.80;;;5.90;1.00;;;;;;5075976;28;20464;-62
2022/02/25 12:36:51;;;;;;;21.67;7.07;;;5.90;1.00;;;;;;5075820;28;20500;-60
2022/02/25 12:39:31;;;;;;;19.63;7.13;;;5.90;1.00;;;;;;5074934;28;20469;-59
2022/02/25 12:42:06;;;;;;;19.37;7.40;;;6.20;1.00;;;;;;5075428;28;20457;-62
2022/02/25 12:44:36;;;;;;;10.60;5.93;;;6.50;1.00;;;;;;5075455;28;20511;-62
2022/02/25 12:47:05;;;;;;;16.13;5.60;;;6.80;1.00;;;;;;5075548;28;20950;-62
2022/02/25 12:49:33;;;;;;;15.70;5.87;;;6.80;1.00;;;;;;5076692;28;20468;-62
2022/02/25 12:52:03;;;;;;;12.33;6.20;;;6.40;1.00;;;;;;5075663;28;20515;-62
2022/02/25 12:54:32;;;;;;;17.47;7.20;;;6.20;1.00;;;;;;5075466;28;20461;-62
2022/02/25 12:57:02;;;;;;;6.20;4.53;;;5.90;1.00;;;;;;5076535;28;20465;-61
2022/02/25 12:59:34;;;;;;;9.77;4.80;;;5.10;1.00;;;;;;5077491;28;20466;-60
2022/02/25 13:02:03;;;;;;;12.07;5.30;;;4.60;1.00;;;;;;5076386;28;20462;-60
2022/02/25 13:04:32;;;;;;;9.23;4.70;;;4.40;16.40;;;;;;5076444;28;20489;-60
2022/02/25 13:07:01;;;;;;;10.03;4.87;;;4.20;99.90;;;;;;5075853;28;20515;-61
2022/02/25 13:09:33;;;;;;;14.43;5.00;;;4.20;99.90;;;;;;5076437;28;20465;-61
2022/02/25 13:12:05;;;;;;;13.50;5.00;;;4.30;1.00;;;;;;5075935;28;20465;-61
2022/02/25 13:14:33;;;;;;;9.83;5.20;;;4.50;1.00;;;;;;5076300;28;20485;-62